sensor_id;sensor_type;location;lat;lon;timestamp;pressure;altitude;pressure_sealevel;temperature;humidity
39491;BME280;25175;50.140;18.990;2023-11-22T00:02:07;98695.72;;;1.06;68.48
39491;BME280;25175;50.140;18.990;2023-11-22T00:05:14;98695.59;;;1.08;69.15
39491;BME280;25175;50.140;18.990;2023-11-22T00:08:19;98694.63;;;1.09;68.98
39491;BME280;25175;50.140;18.990;2023-11-22T00:11:24;98703.78;;;1.03;68.54
39491;BME280;25175;50.140;18.990;2023-11-22T00:14:29;98697.97;;;0.92;68.88
39491;BME280;25175;50.140;18.990;2023-11-22T00:17:35;98722.13;;;1.00;69.40
39491;BME280;25175;50.140;18.990;2023-11-22T00:20:43;98719.69;;;0.99;68.96
39491;BME280;25175;50.140;18.990;2023-11-22T00:23:48;98733.56;;;0.98;68.55
39491;BME280;25175;50.140;18.990;2023-11-22T00:26:54;98738.88;;;0.96;68.85
39491;BME280;25175;50.140;18.990;2023-11-22T00:29:58;98741.19;;;0.99;69.07
39491;BME280;25175;50.140;18.990;2023-11-22T00:33:04;98743.50;;;1.02;68.99
39491;BME280;25175;50.140;18.990;2023-11-22T00:36:11;98739.25;;;1.01;68.71
39491;BME280;25175;50.140;18.990;2023-11-22T00:39:16;98745.81;;;0.96;68.30
39491;BME280;25175;50.140;18.990;2023-11-22T00:42:20;98756.44;;;0.93;68.92
39491;BME280;25175;50.140;18.990;2023-11-22T00:45:26;98746.25;;;0.82;68.44
39491;BME280;25175;50.140;18.990;2023-11-22T00:48:32;98746.94;;;0.74;68.84
39491;BME280;25175;50.140;18.990;2023-11-22T00:51:40;98745.91;;;0.67;69.05
39491;BME280;25175;50.140;18.990;2023-11-22T00:54:46;98766.94;;;0.72;69.31
39491;BME280;25175;50.140;18.990;2023-11-22T00:57:51;98758.41;;;0.72;69.18
39491;BME280;25175;50.140;18.990;2023-11-22T01:00:57;98754.16;;;0.71;69.14
39491;BME280;25175;50.140;18.990;2023-11-22T01:04:03;98738.56;;;0.63;69.20
39491;BME280;25175;50.140;18.990;2023-11-22T01:07:12;98759.63;;;0.68;68.97
39491;BME280;25175;50.140;18.990;2023-11-22T01:10:17;98767.94;;;0.62;68.90
39491;BME280;25175;50.140;18.990;2023-11-22T01:13:21;98754.31;;;0.60;69.31
39491;BME280;25175;50.140;18.990;2023-11-22T01:16:27;98761.16;;;0.61;69.22
39491;BME280;25175;50.140;18.990;2023-11-22T01:19:31;98760.19;;;0.62;69.48
39491;BME280;25175;50.140;18.990;2023-11-22T01:22:39;98761.81;;;0.63;69.21
39491;BME280;25175;50.140;18.990;2023-11-22T01:25:44;98755.16;;;0.60;69.32
39491;BME280;25175;50.140;18.990;2023-11-22T01:28:51;98782.75;;;0.69;69.15
39491;BME280;25175;50.140;18.990;2023-11-22T01:31:55;98786.00;;;0.71;68.50
39491;BME280;25175;50.140;18.990;2023-11-22T01:35:01;98757.59;;;0.52;68.57
39491;BME280;25175;50.140;18.990;2023-11-22T01:38:09;98783.44;;;0.62;69.01
39491;BME280;25175;50.140;18.990;2023-11-22T01:41:14;98776.34;;;0.64;68.85
39491;BME280;25175;50.140;18.990;2023-11-22T01:44:20;98790.22;;;0.63;68.65
39491;BME280;25175;50.140;18.990;2023-11-22T01:47:25;98786.00;;;0.62;68.87
39491;BME280;25175;50.140;18.990;2023-11-22T01:50:30;98785.31;;;0.60;68.88
39491;BME280;25175;50.140;18.990;2023-11-22T01:53:38;98798.22;;;0.60;68.95
39491;BME280;25175;50.140;18.990;2023-11-22T01:56:44;98793.59;;;0.54;68.90
39491;BME280;25175;50.140;18.990;2023-11-22T01:59:50;98744.34;;;0.19;68.86
39491;BME280;25175;50.140;18.990;2023-11-22T02:02:54;98800.94;;;0.49;68.75
39491;BME280;25175;50.140;18.990;2023-11-22T02:06:00;98795.38;;;0.44;69.04
39491;BME280;25175;50.140;18.990;2023-11-22T02:09:09;98783.31;;;0.35;69.35
39491;BME280;25175;50.140;18.990;2023-11-22T02:12:17;98802.31;;;0.43;68.99
39491;BME280;25175;50.140;18.990;2023-11-22T02:15:22;98766.88;;;0.26;69.02
39491;BME280;25175;50.140;18.990;2023-11-22T02:18:27;98789.69;;;0.40;68.82
39491;BME280;25175;50.140;18.990;2023-11-22T02:21:33;98799.72;;;0.53;69.07
39491;BME280;25175;50.140;18.990;2023-11-22T02:24:41;98797.44;;;0.59;68.99
39491;BME280;25175;50.140;18.990;2023-11-22T02:27:46;98790.47;;;0.60;68.94
39491;BME280;25175;50.140;18.990;2023-11-22T02:30:50;98811.38;;;0.76;68.53
39491;BME280;25175;50.140;18.990;2023-11-22T02:33:58;98825.78;;;0.78;67.86
39491;BME280;25175;50.140;18.990;2023-11-22T02:37:02;98833.97;;;0.74;67.89
39491;BME280;25175;50.140;18.990;2023-11-22T02:40:17;98793.47;;;0.55;67.95
39491;BME280;25175;50.140;18.990;2023-11-22T02:43:23;98821.19;;;0.72;68.22
39491;BME280;25175;50.140;18.990;2023-11-22T02:46:28;98825.25;;;0.75;67.78
39491;BME280;25175;50.140;18.990;2023-11-22T02:49:33;98842.25;;;0.68;67.37
39491;BME280;25175;50.140;18.990;2023-11-22T02:52:38;98838.84;;;0.58;67.35
39491;BME280;25175;50.140;18.990;2023-11-22T02:55:45;98853.28;;;0.51;67.70
39491;BME280;25175;50.140;18.990;2023-11-22T02:58:51;98856.25;;;0.46;67.87
39491;BME280;25175;50.140;18.990;2023-11-22T03:01:55;98861.94;;;0.40;68.22
39491;BME280;25175;50.140;18.990;2023-11-22T03:05:01;98856.78;;;0.31;68.19
39491;BME280;25175;50.140;18.990;2023-11-22T03:08:05;98872.13;;;0.32;68.63
39491;BME280;25175;50.140;18.990;2023-11-22T03:11:14;98884.75;;;0.35;68.49
39491;BME280;25175;50.140;18.990;2023-11-22T03:14:20;98882.19;;;0.35;68.47
39491;BME280;25175;50.140;18.990;2023-11-22T03:17:26;98889.53;;;0.40;68.30
39491;BME280;25175;50.140;18.990;2023-11-22T03:20:31;98873.50;;;0.36;68.50
39491;BME280;25175;50.140;18.990;2023-11-22T03:23:39;98894.03;;;0.47;67.71
39491;BME280;25175;50.140;18.990;2023-11-22T03:26:46;98894.84;;;0.48;67.89
39491;BME280;25175;50.140;18.990;2023-11-22T03:29:52;98847.91;;;0.05;68.33
39491;BME280;25175;50.140;18.990;2023-11-22T03:32:57;98913.03;;;0.46;67.90
39491;BME280;25175;50.140;18.990;2023-11-22T03:36:04;98921.72;;;0.45;67.94
39491;BME280;25175;50.140;18.990;2023-11-22T03:39:09;98909.78;;;0.35;68.17
39491;BME280;25175;50.140;18.990;2023-11-22T03:42:19;98719.06;;;-0.84;68.04
39491;BME280;25175;50.140;18.990;2023-11-22T03:45:24;98936.13;;;0.38;67.46
39491;BME280;25175;50.140;18.990;2023-11-22T03:48:29;98944.41;;;0.32;67.74
39491;BME280;25175;50.140;18.990;2023-11-22T03:51:36;98956.47;;;0.22;67.74
39491;BME280;25175;50.140;18.990;2023-11-22T03:54:42;98953.72;;;0.14;67.94
39491;BME280;25175;50.140;18.990;2023-11-22T03:57:49;98952.34;;;0.10;68.17
39491;BME280;25175;50.140;18.990;2023-11-22T04:00:55;98969.03;;;0.06;68.06
39491;BME280;25175;50.140;18.990;2023-11-22T04:03:59;98970.81;;;0.06;68.12
39491;BME280;25175;50.140;18.990;2023-11-22T04:07:05;98982.19;;;0.03;68.19
39491;BME280;25175;50.140;18.990;2023-11-22T04:10:09;98695.72;;;-1.72;67.92
39491;BME280;25175;50.140;18.990;2023-11-22T04:13:18;99001.75;;;0.06;67.99
39491;BME280;25175;50.140;18.990;2023-11-22T04:16:22;98999.03;;;0.07;68.25
39491;BME280;25175;50.140;18.990;2023-11-22T04:19:27;99015.34;;;0.08;67.87
39491;BME280;25175;50.140;18.990;2023-11-22T04:22:32;98992.28;;;-0.14;68.25
39491;BME280;25175;50.140;18.990;2023-11-22T04:25:38;98988.63;;;-0.12;67.75
39491;BME280;25175;50.140;18.990;2023-11-22T04:28:46;99017.72;;;-0.00;67.80
39491;BME280;25175;50.140;18.990;2023-11-22T04:31:51;98608.22;;;-2.64;67.92
39491;BME280;25175;50.140;18.990;2023-11-22T04:34:55;99028.56;;;-0.06;68.18
39491;BME280;25175;50.140;18.990;2023-11-22T04:38:01;99032.47;;;-0.12;68.11
39491;BME280;25175;50.140;18.990;2023-11-22T04:41:05;99036.88;;;-0.23;68.20
39491;BME280;25175;50.140;18.990;2023-11-22T04:44:13;99018.34;;;-0.38;68.05
39491;BME280;25175;50.140;18.990;2023-11-22T04:47:17;98982.75;;;-0.64;68.27
39491;BME280;25175;50.140;18.990;2023-11-22T04:50:23;99069.22;;;-0.19;68.17
39491;BME280;25175;50.140;18.990;2023-11-22T04:53:28;99074.13;;;-0.16;68.00
39491;BME280;25175;50.140;18.990;2023-11-22T04:56:34;99089.59;;;-0.16;67.41
39491;BME280;25175;50.140;18.990;2023-11-22T04:59:41;99067.03;;;-0.24;67.76
39491;BME280;25175;50.140;18.990;2023-11-22T05:02:47;99080.41;;;-0.09;67.71
39491;BME280;25175;50.140;18.990;2023-11-22T05:05:51;99101.84;;;-0.09;67.70
39491;BME280;25175;50.140;18.990;2023-11-22T05:08:56;99103.63;;;-0.09;67.33
39491;BME280;25175;50.140;18.990;2023-11-22T05:12:00;99102.13;;;-0.12;67.46
39491;BME280;25175;50.140;18.990;2023-11-22T05:15:09;99101.78;;;-0.18;67.59
39491;BME280;25175;50.140;18.990;2023-11-22T05:18:15;99112.75;;;-0.05;68.00
39491;BME280;25175;50.140;18.990;2023-11-22T05:21:20;99098.63;;;-0.01;67.47
39491;BME280;25175;50.140;18.990;2023-11-22T05:24:24;99105.19;;;0.03;67.02
39491;BME280;25175;50.140;18.990;2023-11-22T05:27:30;99101.78;;;0.02;67.38
39491;BME280;25175;50.140;18.990;2023-11-22T05:30:38;99105.44;;;-0.00;66.92
39491;BME280;25175;50.140;18.990;2023-11-22T05:33:43;99117.91;;;-0.05;66.77
39491;BME280;25175;50.140;18.990;2023-11-22T05:36:48;99117.72;;;-0.13;66.95
39491;BME280;25175;50.140;18.990;2023-11-22T05:39:53;99120.28;;;-0.13;67.14
39491;BME280;25175;50.140;18.990;2023-11-22T05:42:57;99049.81;;;-0.55;67.36
39491;BME280;25175;50.140;18.990;2023-11-22T05:46:07;99129.19;;;-0.17;66.90
39491;BME280;25175;50.140;18.990;2023-11-22T05:49:13;99145.19;;;-0.23;67.08
39491;BME280;25175;50.140;18.990;2023-11-22T05:52:19;99143.34;;;-0.32;67.13
39491;BME280;25175;50.140;18.990;2023-11-22T05:55:24;99130.88;;;-0.48;67.15
39491;BME280;25175;50.140;18.990;2023-11-22T05:58:31;99129.72;;;-0.55;67.42
39491;BME280;25175;50.140;18.990;2023-11-22T06:01:40;99154.56;;;-0.54;67.50
39491;BME280;25175;50.140;18.990;2023-11-22T06:04:45;99143.66;;;-0.57;67.65
39491;BME280;25175;50.140;18.990;2023-11-22T06:07:50;99159.38;;;-0.60;67.72
39491;BME280;25175;50.140;18.990;2023-11-22T06:10:56;99165.72;;;-0.64;67.92
39491;BME280;25175;50.140;18.990;2023-11-22T06:14:00;99171.56;;;-0.62;67.76
39491;BME280;25175;50.140;18.990;2023-11-22T06:17:08;99188.19;;;-0.66;67.66
39491;BME280;25175;50.140;18.990;2023-11-22T06:20:13;99189.84;;;-0.65;68.16
39491;BME280;25175;50.140;18.990;2023-11-22T06:23:19;99191.22;;;-0.61;67.77
39491;BME280;25175;50.140;18.990;2023-11-22T06:26:23;99205.41;;;-0.56;67.56
39491;BME280;25175;50.140;18.990;2023-11-22T06:29:29;99208.56;;;-0.52;67.46
39491;BME280;25175;50.140;18.990;2023-11-22T06:32:36;99201.78;;;-0.53;67.54
39491;BME280;25175;50.140;18.990;2023-11-22T06:35:41;99206.22;;;-0.55;66.98
39491;BME280;25175;50.140;18.990;2023-11-22T06:38:45;99210.09;;;-0.61;66.74
39491;BME280;25175;50.140;18.990;2023-11-22T06:41:51;99193.97;;;-0.74;67.23
39491;BME280;25175;50.140;18.990;2023-11-22T06:44:56;99218.19;;;-0.65;67.39
39491;BME280;25175;50.140;18.990;2023-11-22T06:48:06;99215.47;;;-0.64;67.61
39491;BME280;25175;50.140;18.990;2023-11-22T06:51:11;99211.16;;;-0.63;67.65
39491;BME280;25175;50.140;18.990;2023-11-22T06:54:18;99219.25;;;-0.68;67.47
39491;BME280;25175;50.140;18.990;2023-11-22T06:57:23;99187.88;;;-0.84;67.54
39491;BME280;25175;50.140;18.990;2023-11-22T07:00:30;99199.00;;;-0.83;67.48
39491;BME280;25175;50.140;18.990;2023-11-22T07:03:37;99224.25;;;-0.66;67.77
39491;BME280;25175;50.140;18.990;2023-11-22T07:06:46;99228.84;;;-0.59;67.64
39491;BME280;25175;50.140;18.990;2023-11-22T07:09:50;99229.63;;;-0.47;67.83
39491;BME280;25175;50.140;18.990;2023-11-22T07:12:56;99227.97;;;-0.37;67.51
39491;BME280;25175;50.140;18.990;2023-11-22T07:16:02;99240.13;;;-0.28;67.03
39491;BME280;25175;50.140;18.990;2023-11-22T07:19:11;99253.03;;;-0.28;66.57
39491;BME280;25175;50.140;18.990;2023-11-22T07:22:16;99237.59;;;-0.50;66.24
39491;BME280;25175;50.140;18.990;2023-11-22T07:25:24;99264.88;;;-0.37;66.47
39491;BME280;25175;50.140;18.990;2023-11-22T07:28:30;99260.28;;;-0.33;66.36
39491;BME280;25175;50.140;18.990;2023-11-22T07:31:37;99276.81;;;-0.25;66.13
39491;BME280;25175;50.140;18.990;2023-11-22T07:34:46;99283.16;;;-0.29;66.17
39491;BME280;25175;50.140;18.990;2023-11-22T07:37:51;99283.75;;;-0.36;65.96
39491;BME280;25175;50.140;18.990;2023-11-22T07:40:56;99195.75;;;-0.96;66.53
39491;BME280;25175;50.140;18.990;2023-11-22T07:44:01;99278.16;;;-0.52;66.28
39491;BME280;25175;50.140;18.990;2023-11-22T07:47:06;99300.88;;;-0.46;66.64
39491;BME280;25175;50.140;18.990;2023-11-22T07:50:15;99299.47;;;-0.50;66.47
39491;BME280;25175;50.140;18.990;2023-11-22T07:53:20;99302.28;;;-0.53;66.82
39491;BME280;25175;50.140;18.990;2023-11-22T07:56:31;99301.22;;;-0.51;66.60
39491;BME280;25175;50.140;18.990;2023-11-22T07:59:35;99065.88;;;-1.91;66.54
39491;BME280;25175;50.140;18.990;2023-11-22T08:02:41;99301.34;;;-0.41;66.38
39491;BME280;25175;50.140;18.990;2023-11-22T08:05:49;99304.38;;;-0.36;66.38
39491;BME280;25175;50.140;18.990;2023-11-22T08:08:55;99297.13;;;-0.31;66.48
39491;BME280;25175;50.140;18.990;2023-11-22T08:12:02;99268.31;;;-0.47;65.95
39491;BME280;25175;50.140;18.990;2023-11-22T08:15:08;99305.78;;;-0.32;65.92
39491;BME280;25175;50.140;18.990;2023-11-22T08:18:13;99314.22;;;-0.30;66.09
39491;BME280;25175;50.140;18.990;2023-11-22T08:21:21;99322.63;;;-0.28;65.65
39491;BME280;25175;50.140;18.990;2023-11-22T08:24:26;99325.69;;;-0.34;65.71
39491;BME280;25175;50.140;18.990;2023-11-22T08:27:31;99314.69;;;-0.36;65.89
39491;BME280;25175;50.140;18.990;2023-11-22T08:30:36;99323.13;;;-0.34;66.04
39491;BME280;25175;50.140;18.990;2023-11-22T08:33:42;99309.75;;;-0.28;66.38
39491;BME280;25175;50.140;18.990;2023-11-22T08:36:50;99322.63;;;-0.28;65.56
39491;BME280;25175;50.140;18.990;2023-11-22T08:39:55;99329.69;;;-0.30;65.89
39491;BME280;25175;50.140;18.990;2023-11-22T08:42:59;99328.75;;;-0.29;65.82
39491;BME280;25175;50.140;18.990;2023-11-22T08:46:06;99344.22;;;-0.29;65.66
39491;BME280;25175;50.140;18.990;2023-11-22T08:49:11;99341.06;;;-0.33;65.32
39491;BME280;25175;50.140;18.990;2023-11-22T08:52:19;99335.06;;;-0.33;66.15
39491;BME280;25175;50.140;18.990;2023-11-22T08:55:24;99342.34;;;-0.27;65.16
39491;BME280;25175;50.140;18.990;2023-11-22T08:58:29;99334.75;;;-0.40;65.36
39491;BME280;25175;50.140;18.990;2023-11-22T09:01:34;99338.13;;;-0.28;65.49
39491;BME280;25175;50.140;18.990;2023-11-22T09:04:39;99339.78;;;-0.27;65.44
39491;BME280;25175;50.140;18.990;2023-11-22T09:07:47;99345.38;;;-0.33;65.66
39491;BME280;25175;50.140;18.990;2023-11-22T09:10:53;99269.50;;;-0.73;65.67
39491;BME280;25175;50.140;18.990;2023-11-22T09:13:58;99355.69;;;-0.22;65.71
39491;BME280;25175;50.140;18.990;2023-11-22T09:17:07;99348.78;;;-0.22;65.11
39491;BME280;25175;50.140;18.990;2023-11-22T09:20:12;99353.47;;;-0.27;65.07
39491;BME280;25175;50.140;18.990;2023-11-22T09:23:21;99371.16;;;-0.33;64.89
39491;BME280;25175;50.140;18.990;2023-11-22T09:26:27;99368.16;;;-0.38;65.42
39491;BME280;25175;50.140;18.990;2023-11-22T09:29:32;99370.00;;;-0.40;65.58
39491;BME280;25175;50.140;18.990;2023-11-22T09:32:37;99359.31;;;-0.47;65.76
39491;BME280;25175;50.140;18.990;2023-11-22T09:35:45;99344.69;;;-0.46;65.39
39491;BME280;25175;50.140;18.990;2023-11-22T09:38:54;99361.56;;;-0.42;65.20
39491;BME280;25175;50.140;18.990;2023-11-22T09:41:59;99375.50;;;-0.34;65.44
39491;BME280;25175;50.140;18.990;2023-11-22T09:45:06;99378.56;;;-0.29;65.23
39491;BME280;25175;50.140;18.990;2023-11-22T09:48:15;99314.34;;;-0.76;64.77
39491;BME280;25175;50.140;18.990;2023-11-22T09:51:23;99406.47;;;-0.34;65.07
39491;BME280;25175;50.140;18.990;2023-11-22T09:54:35;99388.03;;;-0.40;65.30
39491;BME280;25175;50.140;18.990;2023-11-22T09:57:42;99377.38;;;-0.36;65.79
39491;BME280;25175;50.140;18.990;2023-11-22T10:00:47;99382.88;;;-0.29;65.28
39491;BME280;25175;50.140;18.990;2023-11-22T10:03:54;99399.06;;;-0.16;65.19
39491;BME280;25175;50.140;18.990;2023-11-22T10:06:59;99396.13;;;-0.23;64.34
39491;BME280;25175;50.140;18.990;2023-11-22T10:10:08;99411.03;;;-0.15;64.68
39491;BME280;25175;50.140;18.990;2023-11-22T10:13:16;99410.09;;;-0.14;64.66
39491;BME280;25175;50.140;18.990;2023-11-22T10:16:22;99413.25;;;-0.11;64.64
39491;BME280;25175;50.140;18.990;2023-11-22T10:19:27;99410.31;;;-0.06;64.59
39491;BME280;25175;50.140;18.990;2023-11-22T10:22:44;99407.97;;;0.02;64.85
39491;BME280;25175;50.140;18.990;2023-11-22T10:25:53;99405.38;;;0.13;64.81
39491;BME280;25175;50.140;18.990;2023-11-22T10:28:59;99399.94;;;0.16;64.32
39491;BME280;25175;50.140;18.990;2023-11-22T10:32:04;99399.63;;;0.20;64.41
39491;BME280;25175;50.140;18.990;2023-11-22T10:35:11;99383.91;;;0.12;64.57
39491;BME280;25175;50.140;18.990;2023-11-22T10:38:18;99400.31;;;0.22;64.69
39491;BME280;25175;50.140;18.990;2023-11-22T10:41:27;99396.78;;;0.23;64.78
39491;BME280;25175;50.140;18.990;2023-11-22T10:44:34;99397.72;;;0.22;64.85
39491;BME280;25175;50.140;18.990;2023-11-22T10:47:42;99393.41;;;0.23;64.79
39491;BME280;25175;50.140;18.990;2023-11-22T10:50:48;99361.66;;;0.00;64.46
39491;BME280;25175;50.140;18.990;2023-11-22T10:53:54;99393.03;;;0.27;64.95
39491;BME280;25175;50.140;18.990;2023-11-22T10:57:02;99388.44;;;0.31;64.70
39491;BME280;25175;50.140;18.990;2023-11-22T11:00:09;99406.97;;;0.36;64.78
39491;BME280;25175;50.140;18.990;2023-11-22T11:03:18;99403.22;;;0.40;64.32
39491;BME280;25175;50.140;18.990;2023-11-22T11:06:32;99402.59;;;0.47;63.99
39491;BME280;25175;50.140;18.990;2023-11-22T11:09:38;99407.13;;;0.55;64.22
39491;BME280;25175;50.140;18.990;2023-11-22T11:12:47;99403.00;;;0.63;63.59
39491;BME280;25175;50.140;18.990;2023-11-22T11:15:53;99419.41;;;0.73;63.81
39491;BME280;25175;50.140;18.990;2023-11-22T11:19:00;99420.13;;;0.75;63.58
39491;BME280;25175;50.140;18.990;2023-11-22T11:22:08;99274.91;;;-0.12;63.57
39491;BME280;25175;50.140;18.990;2023-11-22T11:25:16;99416.88;;;0.83;63.03
39491;BME280;25175;50.140;18.990;2023-11-22T11:28:25;99419.47;;;0.83;62.80
39491;BME280;25175;50.140;18.990;2023-11-22T11:31:32;99428.16;;;0.82;62.76
39491;BME280;25175;50.140;18.990;2023-11-22T11:34:47;99428.09;;;0.72;63.17
39491;BME280;25175;50.140;18.990;2023-11-22T11:37:59;99440.94;;;0.63;62.73
39491;BME280;25175;50.140;18.990;2023-11-22T11:41:10;99443.06;;;0.58;63.22
39491;BME280;25175;50.140;18.990;2023-11-22T11:44:18;99450.22;;;0.54;62.93
39491;BME280;25175;50.140;18.990;2023-11-22T11:47:23;99444.47;;;0.51;63.42
39491;BME280;25175;50.140;18.990;2023-11-22T11:50:28;99443.31;;;0.44;63.08
39491;BME280;25175;50.140;18.990;2023-11-22T11:53:33;99437.81;;;0.37;63.11
39491;BME280;25175;50.140;18.990;2023-11-22T11:56:38;99441.13;;;0.28;63.01
39491;BME280;25175;50.140;18.990;2023-11-22T11:59:46;99435.28;;;0.15;63.31
39491;BME280;25175;50.140;18.990;2023-11-22T12:02:52;99440.75;;;0.22;63.50
39491;BME280;25175;50.140;18.990;2023-11-22T12:05:57;99442.16;;;0.26;63.28
39491;BME280;25175;50.140;18.990;2023-11-22T12:09:02;99432.31;;;0.31;63.27
39491;BME280;25175;50.140;18.990;2023-11-22T12:12:07;99375.38;;;0.01;62.71
39491;BME280;25175;50.140;18.990;2023-11-22T12:15:15;99440.63;;;0.34;62.59
39491;BME280;25175;50.140;18.990;2023-11-22T12:18:20;99444.28;;;0.32;62.48
39491;BME280;25175;50.140;18.990;2023-11-22T12:21:26;99439.38;;;0.18;62.37
39491;BME280;25175;50.140;18.990;2023-11-22T12:24:34;99446.88;;;0.21;62.34
39491;BME280;25175;50.140;18.990;2023-11-22T12:27:40;99416.16;;;0.18;63.05
39491;BME280;25175;50.140;18.990;2023-11-22T12:30:49;99440.06;;;0.31;62.71
39491;BME280;25175;50.140;18.990;2023-11-22T12:33:56;99445.47;;;0.28;62.21
39491;BME280;25175;50.140;18.990;2023-11-22T12:37:03;99413.13;;;0.02;62.19
39491;BME280;25175;50.140;18.990;2023-11-22T12:40:13;99447.69;;;0.21;62.24
39491;BME280;25175;50.140;18.990;2023-11-22T12:43:19;99473.88;;;0.28;62.18
39491;BME280;25175;50.140;18.990;2023-11-22T12:46:27;99467.97;;;0.26;62.15
39491;BME280;25175;50.140;18.990;2023-11-22T12:49:31;99482.31;;;0.30;62.57
39491;BME280;25175;50.140;18.990;2023-11-22T12:52:36;99467.19;;;0.25;62.16
39491;BME280;25175;50.140;18.990;2023-11-22T12:55:42;99478.41;;;0.35;62.71
39491;BME280;25175;50.140;18.990;2023-11-22T12:58:51;99461.66;;;0.30;62.72
39491;BME280;25175;50.140;18.990;2023-11-22T13:01:59;99460.69;;;0.31;63.27
39491;BME280;25175;50.140;18.990;2023-11-22T13:05:05;99437.72;;;0.28;63.02
39491;BME280;25175;50.140;18.990;2023-11-22T13:08:14;99448.28;;;0.25;62.84
39491;BME280;25175;50.140;18.990;2023-11-22T13:11:19;99460.13;;;0.27;62.24
39491;BME280;25175;50.140;18.990;2023-11-22T13:14:25;99442.06;;;0.16;62.90
39491;BME280;25175;50.140;18.990;2023-11-22T13:17:36;99451.69;;;0.25;63.34
39491;BME280;25175;50.140;18.990;2023-11-22T13:20:41;99454.13;;;0.27;63.03
39491;BME280;25175;50.140;18.990;2023-11-22T13:23:47;99414.53;;;-0.05;63.19
39491;BME280;25175;50.140;18.990;2023-11-22T13:26:51;99466.13;;;0.28;63.79
39491;BME280;25175;50.140;18.990;2023-11-22T13:29:56;99449.22;;;0.24;63.58
39491;BME280;25175;50.140;18.990;2023-11-22T13:33:04;99468.53;;;0.40;63.82
39491;BME280;25175;50.140;18.990;2023-11-22T13:36:10;99459.84;;;0.41;63.71
39491;BME280;25175;50.140;18.990;2023-11-22T13:39:15;99484.75;;;0.53;63.75
39491;BME280;25175;50.140;18.990;2023-11-22T13:42:20;99493.88;;;0.57;63.89
39491;BME280;25175;50.140;18.990;2023-11-22T13:45:25;99503.03;;;0.61;63.98
39491;BME280;25175;50.140;18.990;2023-11-22T13:48:33;99503.97;;;0.60;63.58
39491;BME280;25175;50.140;18.990;2023-11-22T13:51:37;99501.75;;;0.56;63.28
39491;BME280;25175;50.140;18.990;2023-11-22T13:54:42;99504.94;;;0.48;62.88
39491;BME280;25175;50.140;18.990;2023-11-22T13:57:47;99510.78;;;0.39;63.04
39491;BME280;25175;50.140;18.990;2023-11-22T14:00:52;99498.47;;;0.32;62.88
39491;BME280;25175;50.140;18.990;2023-11-22T14:04:00;99501.31;;;0.29;63.22
39491;BME280;25175;50.140;18.990;2023-11-22T14:07:05;99521.59;;;0.22;63.57
39491;BME280;25175;50.140;18.990;2023-11-22T14:10:11;99545.88;;;0.20;63.67
39491;BME280;25175;50.140;18.990;2023-11-22T14:13:18;99557.50;;;0.14;63.39
39491;BME280;25175;50.140;18.990;2023-11-22T14:16:23;99486.00;;;-0.40;63.58
39491;BME280;25175;50.140;18.990;2023-11-22T14:19:32;99566.75;;;0.06;63.89
39491;BME280;25175;50.140;18.990;2023-11-22T14:22:37;99534.97;;;-0.06;63.51
39491;BME280;25175;50.140;18.990;2023-11-22T14:25:42;99552.75;;;-0.03;63.29
39491;BME280;25175;50.140;18.990;2023-11-22T14:28:47;99566.13;;;-0.09;63.61
39491;BME280;25175;50.140;18.990;2023-11-22T14:31:52;99560.47;;;-0.14;64.06
39491;BME280;25175;50.140;18.990;2023-11-22T14:35:00;99559.91;;;-0.17;63.35
39491;BME280;25175;50.140;18.990;2023-11-22T14:38:06;99561.88;;;-0.21;63.81
39491;BME280;25175;50.140;18.990;2023-11-22T14:41:10;99558.50;;;-0.21;63.55
39491;BME280;25175;50.140;18.990;2023-11-22T14:44:16;99539.25;;;-0.28;63.64
39491;BME280;25175;50.140;18.990;2023-11-22T14:47:21;99546.31;;;-0.19;62.92
39491;BME280;25175;50.140;18.990;2023-11-22T14:50:30;99527.31;;;-0.18;63.12
39491;BME280;25175;50.140;18.990;2023-11-22T14:53:35;99543.50;;;-0.16;63.18
39491;BME280;25175;50.140;18.990;2023-11-22T14:56:41;99552.50;;;-0.22;62.82
39491;BME280;25175;50.140;18.990;2023-11-22T14:59:46;99553.91;;;-0.29;62.78
39491;BME280;25175;50.140;18.990;2023-11-22T15:02:51;99541.72;;;-0.27;63.07
39491;BME280;25175;50.140;18.990;2023-11-22T15:06:00;99545.00;;;-0.25;63.27
39491;BME280;25175;50.140;18.990;2023-11-22T15:09:05;99549.94;;;-0.22;63.26
39491;BME280;25175;50.140;18.990;2023-11-22T15:12:10;99548.06;;;-0.20;63.33
39491;BME280;25175;50.140;18.990;2023-11-22T15:15:16;99526.72;;;-0.22;63.05
39491;BME280;25175;50.140;18.990;2023-11-22T15:18:21;99521.56;;;-0.22;62.93
39491;BME280;25175;50.140;18.990;2023-11-22T15:21:29;99529.41;;;-0.23;63.12
39491;BME280;25175;50.140;18.990;2023-11-22T15:24:33;99519.94;;;-0.23;63.10
39491;BME280;25175;50.140;18.990;2023-11-22T15:27:38;99537.97;;;-0.23;63.09
39491;BME280;25175;50.140;18.990;2023-11-22T15:30:43;99534.34;;;-0.20;63.21
39491;BME280;25175;50.140;18.990;2023-11-22T15:33:48;99537.41;;;-0.15;63.47
39491;BME280;25175;50.140;18.990;2023-11-22T15:36:55;99540.59;;;-0.12;63.29
39491;BME280;25175;50.140;18.990;2023-11-22T15:40:00;99540.09;;;-0.17;62.56
39491;BME280;25175;50.140;18.990;2023-11-22T15:43:08;99550.91;;;-0.12;62.64
39491;BME280;25175;50.140;18.990;2023-11-22T15:46:14;99550.06;;;-0.12;62.34
39491;BME280;25175;50.140;18.990;2023-11-22T15:49:19;99547.25;;;-0.20;62.40
39491;BME280;25175;50.140;18.990;2023-11-22T15:52:27;99539.59;;;-0.33;62.80
39491;BME280;25175;50.140;18.990;2023-11-22T15:55:32;99556.50;;;-0.18;62.76
39491;BME280;25175;50.140;18.990;2023-11-22T15:58:39;99550.41;;;-0.17;62.71
39491;BME280;25175;50.140;18.990;2023-11-22T16:01:43;99533.63;;;-0.22;62.42
39491;BME280;25175;50.140;18.990;2023-11-22T16:04:49;99550.91;;;-0.12;62.42
39491;BME280;25175;50.140;18.990;2023-11-22T16:07:56;99553.38;;;-0.10;62.69
39491;BME280;25175;50.140;18.990;2023-11-22T16:11:02;99546.91;;;-0.05;62.49
39491;BME280;25175;50.140;18.990;2023-11-22T16:14:07;99549.84;;;0.02;62.26
39491;BME280;25175;50.140;18.990;2023-11-22T16:17:13;99507.84;;;-0.00;62.28
39491;BME280;25175;50.140;18.990;2023-11-22T16:20:20;99529.44;;;0.21;61.88